createdAt,value
2018-12-17T00:01:36.140Z,12.47
2018-12-17T00:04:42.477Z,12.43
2018-12-17T00:07:48.723Z,11.22
2018-12-17T00:10:54.944Z,12.82
2018-12-17T00:14:07.889Z,11.03
2018-12-17T00:17:14.102Z,12.60
2018-12-17T00:20:20.430Z,12.98
2018-12-17T00:23:27.020Z,11.53
2018-12-17T00:26:33.322Z,13.25
2018-12-17T00:29:39.447Z,13.15
2018-12-17T00:32:45.680Z,13.18
2018-12-17T00:35:51.834Z,11.35
2018-12-17T00:38:58.367Z,13.03
2018-12-17T00:42:04.583Z,11.73
2018-12-17T00:45:10.924Z,12.00
2018-12-17T00:48:17.449Z,10.68
2018-12-17T00:51:23.822Z,13.25
2018-12-17T00:54:29.939Z,11.43
2018-12-17T00:57:36.267Z,10.43
2018-12-17T01:00:42.446Z,12.25
2018-12-17T01:03:48.763Z,9.28
2018-12-17T01:06:54.958Z,9.73
2018-12-17T01:10:02.452Z,10.45
2018-12-17T01:13:08.738Z,9.63
2018-12-17T01:16:15.112Z,9.60
2018-12-17T01:19:21.530Z,10.35
2018-12-17T01:22:27.941Z,10.25
2018-12-17T01:25:34.125Z,10.18
2018-12-17T01:28:40.487Z,10.43
2018-12-17T01:31:46.864Z,9.50
2018-12-17T01:34:53.500Z,9.75
2018-12-17T01:37:59.965Z,9.55
2018-12-17T01:41:06.193Z,8.50
2018-12-17T01:44:12.277Z,8.60
2018-12-17T01:47:18.611Z,9.28
2018-12-17T01:50:24.736Z,8.80
2018-12-17T01:53:31.354Z,9.38
2018-12-17T01:56:37.467Z,9.00
2018-12-17T01:59:43.544Z,7.58
2018-12-17T02:02:49.656Z,9.00
2018-12-17T02:05:56.009Z,8.50
2018-12-17T02:09:02.849Z,7.83
2018-12-17T02:12:09.045Z,9.23
2018-12-17T02:15:16.340Z,8.43
2018-12-17T02:18:22.602Z,10.08
2018-12-17T02:21:28.762Z,8.53
2018-12-17T02:24:35.142Z,9.30
2018-12-17T02:27:41.610Z,9.50
2018-12-17T02:30:47.782Z,8.43
2018-12-17T02:33:54.182Z,8.23
2018-12-17T02:37:00.271Z,8.05
2018-12-17T02:40:07.633Z,8.33
2018-12-17T02:43:13.734Z,8.08
2018-12-17T02:46:19.873Z,7.22
2018-12-17T02:49:27.411Z,7.37
2018-12-17T02:52:33.715Z,7.37
2018-12-17T02:55:39.967Z,7.28
2018-12-17T02:58:46.311Z,7.03
2018-12-17T03:01:52.462Z,6.10
2018-12-17T03:04:59.735Z,6.62
2018-12-17T03:08:05.957Z,5.97
2018-12-17T03:11:12.281Z,7.20
2018-12-17T03:14:18.538Z,6.53
2018-12-17T03:17:24.814Z,6.08
2018-12-17T03:20:31.926Z,8.05
2018-12-17T03:23:38.172Z,6.97
2018-12-17T03:26:44.392Z,7.50
2018-12-17T03:29:50.637Z,6.30
2018-12-17T03:32:56.914Z,5.62
2018-12-17T03:36:03.018Z,5.78
2018-12-17T03:39:09.278Z,6.45
2018-12-17T03:42:15.473Z,5.85
2018-12-17T03:45:21.847Z,5.95
2018-12-17T03:48:28.594Z,5.37
2018-12-17T03:51:35.026Z,5.83
2018-12-17T03:54:41.289Z,4.47
2018-12-17T03:57:47.447Z,6.55
2018-12-17T04:00:53.653Z,5.85
2018-12-17T04:04:00.301Z,5.70
2018-12-17T04:07:06.596Z,5.58
2018-12-17T04:10:12.809Z,5.60
2018-12-17T04:13:19.167Z,6.55
2018-12-17T04:16:25.408Z,6.65
2018-12-17T04:19:31.651Z,5.95
2018-12-17T04:22:37.717Z,7.15
2018-12-17T04:25:44.076Z,5.92
2018-12-17T04:28:50.264Z,6.45
2018-12-17T04:31:57.588Z,5.65
2018-12-17T04:35:04.257Z,6.60
2018-12-17T04:38:10.468Z,5.65
2018-12-17T04:41:16.778Z,4.65
2018-12-17T04:44:24.749Z,4.37
2018-12-17T04:47:31.915Z,5.25
2018-12-17T04:50:38.167Z,5.47
2018-12-17T04:53:45.074Z,4.97
2018-12-17T04:56:51.372Z,5.15
2018-12-17T04:59:57.634Z,6.60
2018-12-17T05:03:05.090Z,5.72
2018-12-17T05:06:11.371Z,5.83
2018-12-17T05:09:17.774Z,6.20
2018-12-17T05:12:23.962Z,5.20
2018-12-17T05:15:30.804Z,6.08
2018-12-17T05:18:37.205Z,6.00
2018-12-17T05:21:43.484Z,6.80
2018-12-17T05:24:49.630Z,6.87
2018-12-17T05:27:56.489Z,6.50
2018-12-17T05:31:02.924Z,7.62
2018-12-17T05:34:09.036Z,6.03
2018-12-17T05:37:21.836Z,5.42
2018-12-17T05:40:29.040Z,6.50
2018-12-17T05:43:35.280Z,5.85
2018-12-17T05:46:41.782Z,7.33
2018-12-17T05:49:48.203Z,6.60
2018-12-17T05:52:54.575Z,7.30
2018-12-17T05:56:01.580Z,7.10
2018-12-17T05:59:07.738Z,6.75
2018-12-17T06:02:13.894Z,6.60
2018-12-17T06:05:20.065Z,8.13
2018-12-17T06:08:26.473Z,6.97
2018-12-17T06:11:33.599Z,7.42
2018-12-17T06:14:39.971Z,7.00
2018-12-17T06:17:46.200Z,6.40
2018-12-17T06:20:52.871Z,7.10
2018-12-17T06:23:59.171Z,7.62
2018-12-17T06:27:05.531Z,7.97
2018-12-17T06:30:11.744Z,8.98
2018-12-17T06:33:18.061Z,7.65
2018-12-17T06:36:24.754Z,7.25
2018-12-17T06:39:31.132Z,7.87
2018-12-17T06:42:37.371Z,7.87
2018-12-17T06:45:43.564Z,6.05
2018-12-17T06:48:49.801Z,6.58
2018-12-17T06:51:56.273Z,7.53
2018-12-17T06:55:02.572Z,6.55
2018-12-17T06:58:09.427Z,6.67
2018-12-17T07:01:15.736Z,6.30
2018-12-17T07:04:22.135Z,6.85
2018-12-17T07:07:28.342Z,5.15
2018-12-17T07:10:34.564Z,6.50
2018-12-17T07:13:40.973Z,6.42
2018-12-17T07:16:47.251Z,6.12
2018-12-17T07:19:54.200Z,6.40
2018-12-17T07:23:06.997Z,6.35
2018-12-17T07:26:13.158Z,6.12
2018-12-17T07:29:19.569Z,5.50
2018-12-17T07:32:27.829Z,5.75
2018-12-17T07:35:34.572Z,7.60
2018-12-17T07:38:40.775Z,6.45
2018-12-17T07:41:46.967Z,5.53
2018-12-17T07:44:53.175Z,5.70
2018-12-17T07:48:00.191Z,6.08
2018-12-17T07:51:06.362Z,5.83
2018-12-17T07:54:12.881Z,5.05
2018-12-17T07:57:19.179Z,5.75
2018-12-17T08:00:25.484Z,5.83
2018-12-17T08:03:32.960Z,5.47
2018-12-17T08:06:39.168Z,5.93
2018-12-17T08:09:45.605Z,6.20
2018-12-17T08:12:51.960Z,8.77
2018-12-17T08:15:58.136Z,3.67
2018-12-17T08:19:04.809Z,4.23
2018-12-17T08:22:11.021Z,4.57
2018-12-17T08:25:17.184Z,4.97
2018-12-17T08:28:23.812Z,4.50
2018-12-17T08:31:30.093Z,4.80
2018-12-17T08:34:36.209Z,4.50
2018-12-17T08:37:42.392Z,4.83
2018-12-17T08:40:48.827Z,4.83
2018-12-17T08:43:54.962Z,4.83
2018-12-17T08:47:01.410Z,4.73
2018-12-17T08:50:07.845Z,4.90
2018-12-17T08:53:14.382Z,5.37
2018-12-17T08:56:20.646Z,4.67
2018-12-17T08:59:26.926Z,5.40
2018-12-17T09:02:33.201Z,5.20
2018-12-17T09:05:39.599Z,4.97
2018-12-17T09:08:45.899Z,4.63
2018-12-17T09:11:52.118Z,4.50
2018-12-17T09:14:58.426Z,5.03
2018-12-17T09:18:05.162Z,4.47
2018-12-17T09:21:11.517Z,4.50
2018-12-17T09:24:18.259Z,4.47
2018-12-17T09:27:24.917Z,5.13
2018-12-17T09:30:31.121Z,4.53
2018-12-17T09:33:37.739Z,4.13
2018-12-17T09:36:44.075Z,4.93
2018-12-17T09:39:50.348Z,4.20
2018-12-17T09:42:57.468Z,4.97
2018-12-17T09:46:03.948Z,4.80
2018-12-17T09:49:10.203Z,3.70
2018-12-17T09:52:16.525Z,5.00
2018-12-17T09:55:22.750Z,4.37
2018-12-17T09:58:29.054Z,3.43
2018-12-17T10:01:35.402Z,3.73
2018-12-17T10:04:41.811Z,3.87
2018-12-17T10:07:48.335Z,3.60
2018-12-17T10:10:54.671Z,4.23
2018-12-17T10:14:00.944Z,3.50
2018-12-17T10:17:07.189Z,3.50
2018-12-17T10:20:13.748Z,3.40
2018-12-17T10:23:20.174Z,3.33
2018-12-17T10:26:26.644Z,3.50
2018-12-17T10:29:33.419Z,3.40
2018-12-17T10:32:40.346Z,3.70
2018-12-17T10:35:46.969Z,3.23
2018-12-17T10:38:53.848Z,3.10
2018-12-17T10:42:01.486Z,2.90
2018-12-17T10:45:08.844Z,3.17
2018-12-17T10:48:15.240Z,2.87
2018-12-17T10:51:21.470Z,2.80
2018-12-17T10:54:27.677Z,3.10
2018-12-17T10:57:34.114Z,3.13
2018-12-17T11:00:45.560Z,3.17
2018-12-17T11:04:10.700Z,3.40
2018-12-17T11:07:17.146Z,2.57
2018-12-17T11:10:23.651Z,4.30
2018-12-17T11:13:30.097Z,3.57
2018-12-17T11:16:36.293Z,4.00
2018-12-17T11:19:42.818Z,4.40
2018-12-17T11:22:49.135Z,4.20
2018-12-17T11:25:55.432Z,3.70
2018-12-17T11:29:02.098Z,4.17
2018-12-17T11:32:11.584Z,4.27
2018-12-17T11:35:17.212Z,4.53
2018-12-17T11:38:23.669Z,4.40
2018-12-17T11:41:30.716Z,4.43
2018-12-17T11:44:37.082Z,4.87
2018-12-17T11:47:43.306Z,4.40
2018-12-17T11:50:50.180Z,4.10
2018-12-17T11:53:56.531Z,4.50
2018-12-17T11:58:13.724Z,4.73
2018-12-17T12:01:20.070Z,4.23
2018-12-17T12:04:26.471Z,5.93
2018-12-17T12:07:33.421Z,5.13
2018-12-17T12:10:39.719Z,5.10
2018-12-17T12:13:46.463Z,6.87
2018-12-17T12:16:52.943Z,5.80
2018-12-17T12:19:59.432Z,5.47
2018-12-17T12:23:06.694Z,4.70
2018-12-17T12:26:13.490Z,4.27
2018-12-17T12:29:19.871Z,4.53
2018-12-17T12:32:26.429Z,4.50
2018-12-17T12:35:33.591Z,5.33
2018-12-17T12:38:39.984Z,5.67
2018-12-17T12:41:46.276Z,4.03
2018-12-17T12:44:52.813Z,4.87
2018-12-17T12:47:59.845Z,4.80
2018-12-17T12:51:06.151Z,4.83
2018-12-17T12:54:12.599Z,4.40
2018-12-17T12:57:18.948Z,4.63
2018-12-17T13:00:25.401Z,4.70
2018-12-17T13:03:32.745Z,5.07
2018-12-17T13:06:39.788Z,4.20
2018-12-17T13:09:46.036Z,4.00
2018-12-17T13:12:52.896Z,4.43
2018-12-17T13:15:59.152Z,5.03
2018-12-17T13:19:06.782Z,4.93
2018-12-17T13:22:13.152Z,4.83
2018-12-17T13:25:28.312Z,4.47
2018-12-17T13:28:34.861Z,5.33
2018-12-17T13:31:41.256Z,4.87
2018-12-17T13:34:47.598Z,5.83
2018-12-17T13:37:54.126Z,5.03
2018-12-17T13:41:00.759Z,4.60
2018-12-17T13:44:11.802Z,5.67
2018-12-17T13:47:18.286Z,4.80
2018-12-17T13:50:30.615Z,5.27
2018-12-17T13:53:38.967Z,5.00
2018-12-17T13:56:45.353Z,4.70
2018-12-17T13:59:51.718Z,5.33
2018-12-17T14:02:57.996Z,4.90
2018-12-17T14:06:05.382Z,5.43
2018-12-17T14:09:11.850Z,5.83
2018-12-17T14:12:19.888Z,5.37
2018-12-17T14:15:30.373Z,6.70
2018-12-17T14:18:42.836Z,6.63
2018-12-17T14:21:54.736Z,7.10
2018-12-17T14:25:01.202Z,6.20
2018-12-17T14:28:07.581Z,6.37
2018-12-17T14:31:13.931Z,5.70
2018-12-17T14:34:20.453Z,6.47
2018-12-17T14:37:26.791Z,5.90
2018-12-17T14:40:32.933Z,6.57
2018-12-17T14:43:39.628Z,6.37
2018-12-17T14:46:51.328Z,5.97
2018-12-17T14:49:57.933Z,6.27
2018-12-17T14:53:04.457Z,6.00
2018-12-17T14:56:10.791Z,6.63
2018-12-17T14:59:17.135Z,5.47
2018-12-17T15:02:23.578Z,5.77
2018-12-17T15:05:30.044Z,6.37
2018-12-17T15:08:36.255Z,6.17
2018-12-17T15:11:42.667Z,5.80
2018-12-17T15:14:49.046Z,5.50
2018-12-17T15:17:55.402Z,5.03
2018-12-17T15:21:01.985Z,6.57
2018-12-17T15:24:08.941Z,5.50
2018-12-17T15:27:15.563Z,5.43
2018-12-17T15:30:21.840Z,5.60
2018-12-17T15:33:29.419Z,6.10
2018-12-17T15:36:35.924Z,5.47
2018-12-17T15:39:42.236Z,4.93
2018-12-17T15:42:48.523Z,5.57
2018-12-17T15:45:54.883Z,6.20
2018-12-17T15:49:01.886Z,5.87
2018-12-17T15:52:08.159Z,6.43
2018-12-17T15:55:14.722Z,9.03
2018-12-17T15:58:21.355Z,6.17
2018-12-17T16:01:27.615Z,5.87
2018-12-17T16:04:34.237Z,6.10
2018-12-17T16:07:40.673Z,6.37
2018-12-17T16:10:47.383Z,6.33
2018-12-17T16:13:53.653Z,6.57
2018-12-17T16:17:00.085Z,6.03
2018-12-17T16:20:07.460Z,6.07
2018-12-17T16:23:13.606Z,6.37
2018-12-17T16:26:20.049Z,6.97
2018-12-17T16:29:26.418Z,7.03
2018-12-17T16:32:33.396Z,8.07
2018-12-17T16:35:39.968Z,8.60
2018-12-17T16:38:46.265Z,7.40
2018-12-17T16:41:52.680Z,9.33
2018-12-17T16:44:59.177Z,7.13
2018-12-17T16:48:05.917Z,7.47
2018-12-17T16:51:12.216Z,7.73
2018-12-17T16:54:18.548Z,7.07
2018-12-17T16:57:24.959Z,7.10
2018-12-17T17:00:31.374Z,7.43
2018-12-17T17:03:38.258Z,7.17
2018-12-17T17:06:44.626Z,6.80
2018-12-17T17:09:50.911Z,8.07
2018-12-17T17:12:57.127Z,6.97
2018-12-17T17:16:03.582Z,7.03
2018-12-17T17:19:09.961Z,6.97
2018-12-17T17:22:16.236Z,6.90
2018-12-17T17:25:22.855Z,6.57
2018-12-17T17:28:29.854Z,7.47
2018-12-17T17:31:36.250Z,7.53
2018-12-17T17:34:42.738Z,6.57
2018-12-17T17:37:49.283Z,7.47
2018-12-17T17:40:55.631Z,6.33
2018-12-17T17:44:02.722Z,8.63
2018-12-17T17:47:09.092Z,7.00
2018-12-17T17:50:15.204Z,7.73
2018-12-17T17:53:21.878Z,8.23
2018-12-17T17:56:28.207Z,8.03
2018-12-17T17:59:35.277Z,8.20
2018-12-17T18:02:41.579Z,6.50
2018-12-17T18:05:47.861Z,7.77
2018-12-17T18:08:54.158Z,7.47
2018-12-17T18:12:00.604Z,6.80
2018-12-17T18:15:07.990Z,7.60
2018-12-17T18:18:15.066Z,7.03
2018-12-17T18:21:21.674Z,7.57
2018-12-17T18:24:28.293Z,8.17
2018-12-17T18:27:35.983Z,7.70
2018-12-17T18:30:42.391Z,8.20
2018-12-17T18:33:48.819Z,7.63
2018-12-17T18:36:55.143Z,8.17
2018-12-17T18:40:02.288Z,8.30
2018-12-17T18:43:08.568Z,7.90
2018-12-17T18:46:15.091Z,7.80
2018-12-17T18:49:21.439Z,8.13
2018-12-17T18:52:27.913Z,8.40
2018-12-17T18:55:34.160Z,8.00
2018-12-17T18:58:40.641Z,8.93
2018-12-17T19:01:47.091Z,9.30
2018-12-17T19:04:53.531Z,8.17
2018-12-17T19:07:59.696Z,9.37
2018-12-17T19:11:06.257Z,9.60
2018-12-17T19:14:13.141Z,9.07
2018-12-17T19:17:20.609Z,8.30
2018-12-17T19:20:26.871Z,9.20
2018-12-17T19:23:33.028Z,8.80
2018-12-17T19:26:39.821Z,9.60
2018-12-17T19:29:46.233Z,8.73
2018-12-17T19:32:52.716Z,9.17
2018-12-17T19:35:59.361Z,8.93
2018-12-17T19:39:07.674Z,9.27
2018-12-17T19:42:13.937Z,9.23
2018-12-17T19:45:20.131Z,8.67
2018-12-17T19:48:26.568Z,9.10
2018-12-17T19:51:33.013Z,10.60
2018-12-17T19:54:39.228Z,9.47
2018-12-17T19:57:45.778Z,8.70
2018-12-17T20:00:51.908Z,8.97
2018-12-17T20:03:58.074Z,8.77
2018-12-17T20:07:04.349Z,9.37
2018-12-17T20:10:14.955Z,8.67
2018-12-17T20:13:21.209Z,7.90
2018-12-17T20:16:27.862Z,9.23
2018-12-17T20:19:34.046Z,7.67
2018-12-17T20:22:40.569Z,10.17
2018-12-17T20:25:47.429Z,9.50
2018-12-17T20:28:53.660Z,7.40
2018-12-17T20:32:00.124Z,9.60
2018-12-17T20:35:07.414Z,8.60
2018-12-17T20:38:13.601Z,7.73
2018-12-17T20:41:19.949Z,9.57
2018-12-17T20:44:26.820Z,10.03
2018-12-17T20:47:33.049Z,8.10
2018-12-17T20:50:39.377Z,8.63
2018-12-17T20:53:45.784Z,8.70
2018-12-17T20:56:52.510Z,7.83
2018-12-17T20:59:58.559Z,7.77
2018-12-17T21:03:04.903Z,7.40
2018-12-17T21:06:11.067Z,8.13
2018-12-17T21:09:17.271Z,7.47
2018-12-17T21:12:23.434Z,7.70
2018-12-17T21:15:29.602Z,8.10
2018-12-17T21:18:35.864Z,8.53
2018-12-17T21:21:42.234Z,7.17
2018-12-17T21:24:48.711Z,8.47
2018-12-17T21:27:55.190Z,8.67
2018-12-17T21:31:01.337Z,8.07
2018-12-17T21:34:07.526Z,7.47
2018-12-17T21:37:14.283Z,9.13
2018-12-17T21:40:20.669Z,8.23
2018-12-17T21:43:26.931Z,7.23
2018-12-17T21:46:34.133Z,7.63
2018-12-17T21:49:40.688Z,6.97
2018-12-17T21:52:47.070Z,8.53
2018-12-17T21:55:53.162Z,6.70
2018-12-17T21:58:59.305Z,7.00
2018-12-17T22:02:05.568Z,7.43
2018-12-17T22:05:11.713Z,7.93
2018-12-17T22:08:17.780Z,8.13
2018-12-17T22:11:23.760Z,8.53
2018-12-17T22:14:29.872Z,7.63
2018-12-17T22:17:36.324Z,8.63
2018-12-17T22:20:42.280Z,6.90
2018-12-17T22:23:48.735Z,7.77
2018-12-17T22:26:54.822Z,7.23
2018-12-17T22:30:00.914Z,7.10
2018-12-17T22:33:07.664Z,7.53
2018-12-17T22:36:13.795Z,7.27
2018-12-17T22:39:26.533Z,7.47
2018-12-17T22:42:32.810Z,7.70
2018-12-17T22:45:39.442Z,7.33
2018-12-17T22:48:45.555Z,6.63
2018-12-17T22:51:51.618Z,7.10
2018-12-17T22:54:57.736Z,6.73
2018-12-17T22:58:03.804Z,6.13
2018-12-17T23:01:10.097Z,6.83
2018-12-17T23:04:16.284Z,6.60
2018-12-17T23:07:22.344Z,7.40
2018-12-17T23:10:44.482Z,6.60
2018-12-17T23:14:01.946Z,7.07
2018-12-17T23:17:19.342Z,6.73
2018-12-17T23:20:25.586Z,7.67
2018-12-17T23:23:31.794Z,6.83
2018-12-17T23:26:37.960Z,7.60
2018-12-17T23:29:44.485Z,8.10
2018-12-17T23:32:50.901Z,7.70
2018-12-17T23:35:57.060Z,7.30
2018-12-17T23:39:05.008Z,7.53
2018-12-17T23:42:11.119Z,7.87
2018-12-17T23:45:20.994Z,9.07
2018-12-17T23:48:27.101Z,7.17
2018-12-17T23:51:33.168Z,6.67
2018-12-17T23:54:39.246Z,7.20
2018-12-17T23:57:45.334Z,7.83
